Wetterdaten: Dienstag, 24.09.2013
Datum Zeit Temperatur Luftfeuchte Luftdruck Regen Wind Richtung Richtung Taupunkt Windchill Windben
24.09.2013 00:00 5,8 C 92 % 1023,0 hPa 0,0 l/m 0,0 km/h (0 Bft) NO 45 4,6 C 6,0 C 0,0 km/h (0 Bft)
24.09.2013 00:05 5,7 C 92 % 1023,0 hPa 0,0 l/m 0,0 km/h (0 Bft) NO 45 4,5 C 6,0 C 0,0 km/h (0 Bft)
24.09.2013 00:10 5,9 C 92 % 1022,9 hPa 0,0 l/m 0,0 km/h (0 Bft) O 90 4,7 C 6,0 C 0,0 km/h (0 Bft)
24.09.2013 00:15 6,4 C 91 % 1022,9 hPa 0,0 l/m 0,0 km/h (0 Bft) O 90 5,0 C 6,0 C 0,0 km/h (0 Bft)
24.09.2013 00:20 6,6 C 91 % 1022,9 hPa 0,0 l/m 0,2 km/h (0 Bft) SO 135 5,2 C 6,2 C 0,0 km/h (0 Bft)
24.09.2013 00:25 6,3 C 91 % 1022,9 hPa 0,0 l/m 0,2 km/h (0 Bft) S-SO 157 4,9 C 6,2 C 0,0 km/h (0 Bft)
24.09.2013 00:30 6,0 C 91 % 1022,6 hPa 0,0 l/m 0,0 km/h (0 Bft) S-SO 157 4,6 C 6,2 C 0,0 km/h (0 Bft)
24.09.2013 00:35 5,7 C 92 % 1022,6 hPa 0,0 l/m 0,0 km/h (0 Bft) O-NO 67 4,5 C 6,1 C 0,0 km/h (0 Bft)
24.09.2013 00:40 5,6 C 92 % 1022,6 hPa 0,0 l/m 0,0 km/h (0 Bft) O-NO 67 4,4 C 5,9 C 0,0 km/h (0 Bft)
24.09.2013 00:45 5,8 C 92 % 1022,6 hPa 0,0 l/m 0,0 km/h (0 Bft) O-NO 67 4,6 C 5,8 C 0,0 km/h (0 Bft)
24.09.2013 00:50 6,2 C 91 % 1022,6 hPa 0,0 l/m 0,3 km/h (0 Bft) O-NO 67 4,8 C 6,0 C 2,9 km/h (1 Bft)
24.09.2013 00:55 5,9 C 93 % 1022,6 hPa 0,0 l/m 0,3 km/h (0 Bft) NO 45 4,9 C 6,1 C 0,0 km/h (0 Bft)
24.09.2013 01:00 5,6 C 92 % 1022,6 hPa 0,0 l/m 0,0 km/h (0 Bft) O 90 4,4 C 6,0 C 0,0 km/h (0 Bft)
24.09.2013 01:05 5,5 C 93 % 1022,6 hPa 0,0 l/m 0,0 km/h (0 Bft) O 90 4,5 C 5,9 C 0,0 km/h (0 Bft)
24.09.2013 01:10 5,3 C 92 % 1022,4 hPa 0,0 l/m 0,0 km/h (0 Bft) O-NO 67 4,1 C 5,6 C 0,0 km/h (0 Bft)
24.09.2013 01:15 5,2 C 92 % 1022,4 hPa 0,0 l/m 0,0 km/h (0 Bft) O-NO 67 4,0 C 5,5 C 0,0 km/h (0 Bft)
24.09.2013 01:20 5,2 C 92 % 1022,4 hPa 0,0 l/m 0,0 km/h (0 Bft) O-NO 67 4,0 C 5,3 C 0,0 km/h (0 Bft)
24.09.2013 01:25 5,2 C 92 % 1022,4 hPa 0,0 l/m 0,0 km/h (0 Bft) O-NO 67 4,0 C 5,3 C 0,0 km/h (0 Bft)
24.09.2013 01:30 5,0 C 92 % 1022,2 hPa 0,0 l/m 0,0 km/h (0 Bft) O-NO 67 3,8 C 5,1 C 0,0 km/h (0 Bft)
24.09.2013 01:35 4,8 C 92 % 1022,2 hPa 0,0 l/m 0,0 km/h (0 Bft) O-NO 67 3,6 C 4,9 C 0,0 km/h (0 Bft)
24.09.2013 01:40 4,8 C 93 % 1022,2 hPa 0,0 l/m 0,0 km/h (0 Bft) O-NO 67 3,8 C 4,8 C 0,0 km/h (0 Bft)
24.09.2013 01:45 4,8 C 93 % 1022,2 hPa 0,0 l/m 0,0 km/h (0 Bft) O-NO 67 3,8 C 4,8 C 0,0 km/h (0 Bft)
24.09.2013 01:50 4,6 C 92 % 1022,2 hPa 0,0 l/m 0,0 km/h (0 Bft) O-NO 67 3,4 C 4,7 C 0,0 km/h (0 Bft)
24.09.2013 01:55 4,7 C 93 % 1022,2 hPa 0,0 l/m 0,0 km/h (0 Bft) O 90 3,7 C 4,7 C 0,0 km/h (0 Bft)
24.09.2013 02:00 4,9 C 93 % 1022,2 hPa 0,0 l/m 0,0 km/h (0 Bft) NW 315 3,9 C 5,1 C 0,0 km/h (0 Bft)
24.09.2013 02:05 5,0 C 93 % 1022,2 hPa 0,0 l/m 0,0 km/h (0 Bft) NW 315 4,0 C 5,2 C 0,0 km/h (0 Bft)
24.09.2013 02:10 5,5 C 93 % 1022,2 hPa 0,0 l/m 0,0 km/h (0 Bft) NO 45 4,5 C 5,3 C 0,0 km/h (0 Bft)
24.09.2013 02:15 5,5 C 93 % 1022,2 hPa 0,0 l/m 0,0 km/h (0 Bft) NO 45 4,5 C 5,4 C 0,0 km/h (0 Bft)
24.09.2013 02:20 5,4 C 93 % 1022,2 hPa 0,0 l/m 0,0 km/h (0 Bft) NO 45 4,4 C 5,4 C 0,0 km/h (0 Bft)
24.09.2013 02:25 5,1 C 93 % 1022,2 hPa 0,0 l/m 0,0 km/h (0 Bft) NO 45 4,1 C 5,4 C 0,0 km/h (0 Bft)
24.09.2013 02:30 5,0 C 93 % 1021,9 hPa 0,0 l/m 0,0 km/h (0 Bft) NO 45 4,0 C 5,2 C 0,0 km/h (0 Bft)
24.09.2013 02:35 5,1 C 93 % 1021,9 hPa 0,0 l/m 0,0 km/h (0 Bft) NO 45 4,1 C 5,1 C 0,0 km/h (0 Bft)
24.09.2013 02:40 5,3 C 93 % 1021,9 hPa 0,0 l/m 0,0 km/h (0 Bft) NO 45 4,3 C 5,2 C 0,0 km/h (0 Bft)
24.09.2013 02:45 5,2 C 93 % 1021,9 hPa 0,0 l/m 0,0 km/h (0 Bft) NO 45 4,2 C 5,2 C 0,0 km/h (0 Bft)
24.09.2013 02:50 4,9 C 93 % 1021,9 hPa 0,0 l/m 0,0 km/h (0 Bft) N-NO 22 3,9 C 4,9 C 0,0 km/h (0 Bft)
24.09.2013 02:55 4,8 C 93 % 1021,9 hPa 0,0 l/m 0,0 km/h (0 Bft) N-NW 337 3,8 C 4,8 C 0,0 km/h (0 Bft)
24.09.2013 03:00 4,7 C 93 % 1021,9 hPa 0,0 l/m 0,2 km/h (0 Bft) N-NO 22 3,7 C 4,9 C 0,0 km/h (0 Bft)
24.09.2013 03:05 4,6 C 93 % 1021,9 hPa 0,0 l/m 0,2 km/h (0 Bft) NO 45 3,6 C 4,9 C 0,0 km/h (0 Bft)
24.09.2013 03:10 4,7 C 93 % 1021,6 hPa 0,0 l/m 0,0 km/h (0 Bft) O-SO 112 3,7 C 5,0 C 0,0 km/h (0 Bft)
24.09.2013 03:15 4,7 C 93 % 1021,6 hPa 0,0 l/m 0,0 km/h (0 Bft) O-SO 112 3,7 C 4,8 C 0,0 km/h (0 Bft)
24.09.2013 03:20 4,7 C 93 % 1021,6 hPa 0,0 l/m 0,0 km/h (0 Bft) O-SO 112 3,7 C 4,7 C 0,0 km/h (0 Bft)
24.09.2013 03:25 4,7 C 93 % 1021,6 hPa 0,0 l/m 0,0 km/h (0 Bft) O-SO 112 3,7 C 4,7 C 0,0 km/h (0 Bft)
24.09.2013 03:30 4,3 C 93 % 1021,6 hPa 0,0 l/m 0,2 km/h (0 Bft) NO 45 3,3 C 4,6 C 0,0 km/h (0 Bft)
24.09.2013 03:35 4,3 C 93 % 1021,6 hPa 0,0 l/m 0,2 km/h (0 Bft) NO 45 3,3 C 4,5 C 0,0 km/h (0 Bft)
24.09.2013 03:40 5,8 C 94 % 1021,6 hPa 0,0 l/m 1,0 km/h (0 Bft) O-SO 112 4,9 C 4,8 C 4,2 km/h (1 Bft)
24.09.2013 03:45 5,5 C 94 % 1021,6 hPa 0,0 l/m 1,4 km/h (1 Bft) O-SO 112 4,6 C 5,0 C 3,9 km/h (1 Bft)
24.09.2013 03:50 5,5 C 94 % 1021,4 hPa 0,0 l/m 1,8 km/h (1 Bft) NO 45 4,6 C 5,3 C 1,8 km/h (1 Bft)
24.09.2013 03:55 4,6 C 94 % 1021,4 hPa 0,0 l/m 0,8 km/h (0 Bft) NO 45 3,7 C 5,1 C 0,0 km/h (0 Bft)
24.09.2013 04:00 4,2 C 94 % 1021,4 hPa 0,0 l/m 0,2 km/h (0 Bft) O-SO 112 3,3 C 4,7 C 1,6 km/h (1 Bft)
24.09.2013 04:05 5,2 C 94 % 1021,4 hPa 0,0 l/m 0,3 km/h (0 Bft) O-SO 112 4,3 C 4,7 C 2,3 km/h (1 Bft)
24.09.2013 04:10 4,3 C 94 % 1021,1 hPa 0,0 l/m 0,5 km/h (0 Bft) N-NW 337 3,4 C 4,9 C 0,0 km/h (0 Bft)
24.09.2013 04:15 4,3 C 94 % 1021,1 hPa 0,0 l/m 0,0 km/h (0 Bft) O 90 3,4 C 4,7 C 0,0 km/h (0 Bft)
24.09.2013 04:20 5,3 C 94 % 1021,1 hPa 0,0 l/m 0,8 km/h (0 Bft) NO 45 4,4 C 4,7 C 0,0 km/h (0 Bft)
24.09.2013 04:25 4,7 C 94 % 1021,1 hPa 0,0 l/m 1,0 km/h (0 Bft) W-NW 292 3,8 C 4,8 C 0,0 km/h (0 Bft)
24.09.2013 04:30 4,6 C 94 % 1021,1 hPa 0,0 l/m 0,0 km/h (0 Bft) NW 315 3,7 C 4,6 C 0,0 km/h (0 Bft)
24.09.2013 04:35 4,4 C 94 % 1021,1 hPa 0,0 l/m 0,0 km/h (0 Bft) N 360 3,5 C 4,5 C 0,0 km/h (0 Bft)
24.09.2013 04:40 4,3 C 94 % 1021,1 hPa 0,0 l/m 0,0 km/h (0 Bft) W 270 3,4 C 4,4 C 0,0 km/h (0 Bft)
24.09.2013 04:45 4,2 C 94 % 1021,1 hPa 0,0 l/m 0,0 km/h (0 Bft) W 270 3,3 C 4,4 C 0,0 km/h (0 Bft)
24.09.2013 04:50 3,8 C 94 % 1021,1 hPa 0,0 l/m 0,0 km/h (0 Bft) W-NW 292 2,9 C 4,1 C 0,0 km/h (0 Bft)
24.09.2013 04:55 3,7 C 94 % 1021,1 hPa 0,0 l/m 0,0 km/h (0 Bft) W-NW 292 2,8 C 3,9 C 0,0 km/h (0 Bft)
24.09.2013 05:00 3,8 C 94 % 1021,1 hPa 0,0 l/m 0,0 km/h (0 Bft) W-SW 247 2,9 C 3,7 C 0,0 km/h (0 Bft)
24.09.2013 05:05 4,0 C 94 % 1021,1 hPa 0,0 l/m 0,0 km/h (0 Bft) W-SW 247 3,1 C 3,7 C 0,0 km/h (0 Bft)
24.09.2013 05:10 3,5 C 94 % 1021,0 hPa 0,0 l/m 0,0 km/h (0 Bft) W 270 2,6 C 3,6 C 0,0 km/h (0 Bft)
24.09.2013 05:15 3,4 C 94 % 1021,0 hPa 0,0 l/m 0,0 km/h (0 Bft) W 270 2,5 C 3,2 C 0,0 km/h (0 Bft)
24.09.2013 05:20 3,4 C 94 % 1021,0 hPa 0,0 l/m 0,0 km/h (0 Bft) W-SW 247 2,5 C 3,2 C 0,0 km/h (0 Bft)
24.09.2013 05:25 3,6 C 94 % 1021,0 hPa 0,0 l/m 0,0 km/h (0 Bft) O-NO 67 2,7 C 3,3 C 0,0 km/h (0 Bft)
24.09.2013 05:30 3,1 C 94 % 1020,8 hPa 0,0 l/m 0,0 km/h (0 Bft) N-NO 22 2,2 C 3,2 C 0,0 km/h (0 Bft)
24.09.2013 05:35 3,1 C 94 % 1020,8 hPa 0,0 l/m 0,0 km/h (0 Bft) NO 45 2,2 C 3,0 C 0,0 km/h (0 Bft)
24.09.2013 05:40 3,0 C 94 % 1020,8 hPa 0,0 l/m 0,0 km/h (0 Bft) N-NO 22 2,1 C 3,0 C 0,0 km/h (0 Bft)
24.09.2013 05:45 3,0 C 94 % 1020,8 hPa 0,0 l/m 0,0 km/h (0 Bft) N-NO 22 2,1 C 3,0 C 0,0 km/h (0 Bft)
24.09.2013 05:50 3,3 C 95 % 1020,8 hPa 0,0 l/m 0,0 km/h (0 Bft) NO 45 2,6 C 2,9 C 0,0 km/h (0 Bft)
24.09.2013 05:55 3,2 C 95 % 1020,8 hPa 0,0 l/m 0,0 km/h (0 Bft) O 90 2,5 C 2,9 C 0,0 km/h (0 Bft)
24.09.2013 06:00 3,0 C 95 % 1020,8 hPa 0,0 l/m 0,0 km/h (0 Bft) O 90 2,3 C 3,2 C 0,0 km/h (0 Bft)
24.09.2013 06:05 2,9 C 96 % 1020,8 hPa 0,0 l/m 0,0 km/h (0 Bft) N 360 2,3 C 3,2 C 0,0 km/h (0 Bft)
24.09.2013 06:10 2,9 C 96 % 1020,6 hPa 0,0 l/m 0,0 km/h (0 Bft) NO 45 2,3 C 3,1 C 0,0 km/h (0 Bft)
24.09.2013 06:15 3,7 C 95 % 1020,6 hPa 0,0 l/m 0,6 km/h (0 Bft) O-SO 112 3,0 C 3,3 C 0,0 km/h (0 Bft)
24.09.2013 06:20 3,8 C 95 % 1020,6 hPa 0,0 l/m 0,6 km/h (0 Bft) O-SO 112 3,1 C 3,4 C 0,0 km/h (0 Bft)
24.09.2013 06:25 3,4 C 95 % 1020,6 hPa 0,0 l/m 0,5 km/h (0 Bft) O-SO 112 2,7 C 3,4 C 0,0 km/h (0 Bft)
24.09.2013 06:30 3,2 C 95 % 1020,5 hPa 0,0 l/m 0,0 km/h (0 Bft) O-SO 112 2,5 C 3,0 C 0,0 km/h (0 Bft)
24.09.2013 06:35 3,2 C 95 % 1020,5 hPa 0,0 l/m 0,0 km/h (0 Bft) S-SW 202 2,5 C 3,1 C 0,0 km/h (0 Bft)
24.09.2013 06:40 3,0 C 95 % 1020,5 hPa 0,0 l/m 0,0 km/h (0 Bft) SW 225 2,3 C 3,1 C 0,0 km/h (0 Bft)
24.09.2013 06:45 2,8 C 96 % 1020,5 hPa 0,0 l/m 0,0 km/h (0 Bft) S-SW 202 2,2 C 3,1 C 0,0 km/h (0 Bft)
24.09.2013 06:50 2,9 C 96 % 1020,5 hPa 0,0 l/m 0,0 km/h (0 Bft) N 360 2,3 C 2,7 C 0,0 km/h (0 Bft)
24.09.2013 06:55 2,9 C 96 % 1020,5 hPa 0,0 l/m 0,2 km/h (0 Bft) NO 45 2,3 C 2,7 C 1,8 km/h (1 Bft)
24.09.2013 07:00 3,0 C 95 % 1020,5 hPa 0,0 l/m 0,3 km/h (0 Bft) NO 45 2,3 C 2,8 C 0,0 km/h (0 Bft)
24.09.2013 07:05 2,7 C 96 % 1020,5 hPa 0,0 l/m 0,3 km/h (0 Bft) NO 45 2,1 C 2,8 C 0,0 km/h (0 Bft)
24.09.2013 07:10 2,7 C 96 % 1020,4 hPa 0,0 l/m 0,0 km/h (0 Bft) NO 45 2,1 C 2,5 C 0,0 km/h (0 Bft)
24.09.2013 07:15 2,8 C 96 % 1020,4 hPa 0,0 l/m 0,0 km/h (0 Bft) NO 45 2,2 C 2,4 C 0,0 km/h (0 Bft)
24.09.2013 07:20 2,8 C 96 % 1020,4 hPa 0,0 l/m 0,0 km/h (0 Bft) N 360 2,2 C 2,5 C 0,0 km/h (0 Bft)
24.09.2013 07:25 2,8 C 96 % 1020,4 hPa 0,0 l/m 0,0 km/h (0 Bft) N 360 2,2 C 2,6 C 0,0 km/h (0 Bft)
24.09.2013 07:30 2,7 C 96 % 1020,3 hPa 0,0 l/m 0,3 km/h (0 Bft) N-NO 22 2,1 C 2,9 C 0,0 km/h (0 Bft)
24.09.2013 07:35 3,0 C 96 % 1020,3 hPa 0,0 l/m 0,3 km/h (0 Bft) N-NO 22 2,4 C 3,1 C 0,0 km/h (0 Bft)
24.09.2013 07:40 3,4 C 96 % 1020,3 hPa 0,0 l/m 0,0 km/h (0 Bft) N 360 2,8 C 3,1 C 0,0 km/h (0 Bft)
24.09.2013 07:45 3,4 C 96 % 1020,3 hPa 0,0 l/m 0,0 km/h (0 Bft) N-NO 22 2,8 C 3,2 C 0,0 km/h (0 Bft)
24.09.2013 07:50 3,7 C 96 % 1020,2 hPa 0,0 l/m 0,2 km/h (0 Bft) O-NO 67 3,1 C 3,4 C 0,0 km/h (0 Bft)
24.09.2013 07:55 3,8 C 96 % 1020,2 hPa 0,0 l/m 0,2 km/h (0 Bft) N 360 3,2 C 3,6 C 0,0 km/h (0 Bft)
24.09.2013 08:00 3,6 C 96 % 1020,2 hPa 0,0 l/m 0,2 km/h (0 Bft) N-NO 22 3,0 C 3,7 C 0,0 km/h (0 Bft)
24.09.2013 08:05 3,9 C 96 % 1020,2 hPa 0,0 l/m 0,2 km/h (0 Bft) O 90 3,3 C 3,8 C 1,9 km/h (1 Bft)
24.09.2013 08:10 4,1 C 96 % 1020,1 hPa 0,0 l/m 0,3 km/h (0 Bft) O 90 3,5 C 4,0 C 0,0 km/h (0 Bft)
24.09.2013 08:15 4,2 C 96 % 1020,1 hPa 0,0 l/m 0,0 km/h (0 Bft) O 90 3,6 C 4,1 C 0,0 km/h (0 Bft)
24.09.2013 08:20 4,1 C 96 % 1020,1 hPa 0,0 l/m 0,0 km/h (0 Bft) O 90 3,5 C 4,1 C 0,0 km/h (0 Bft)
24.09.2013 08:25 4,2 C 96 % 1020,1 hPa 0,0 l/m 0,0 km/h (0 Bft) NO 45 3,6 C 4,2 C 0,0 km/h (0 Bft)
24.09.2013 08:30 4,7 C 96 % 1020,2 hPa 0,0 l/m 0,5 km/h (0 Bft) SO 135 4,1 C 5,4 C 1,8 km/h (1 Bft)
24.09.2013 08:35 5,0 C 96 % 1020,2 hPa 0,0 l/m 0,5 km/h (0 Bft) O 90 4,4 C 7,3 C 0,0 km/h (0 Bft)
24.09.2013 08:40 5,3 C 96 % 1020,2 hPa 0,0 l/m 0,2 km/h (0 Bft) W-NW 292 4,7 C 9,8 C 2,1 km/h (1 Bft)
24.09.2013 08:45 5,2 C 96 % 1020,2 hPa 0,0 l/m 0,2 km/h (0 Bft) N-NW 337 4,6 C 10,2 C 0,0 km/h (0 Bft)
24.09.2013 08:50 5,5 C 96 % 1020,0 hPa 0,0 l/m 0,2 km/h (0 Bft) NO 45 4,9 C 11,7 C 0,0 km/h (0 Bft)
24.09.2013 08:55 5,9 C 96 % 1020,0 hPa 0,0 l/m 0,0 km/h (0 Bft) NO 45 5,3 C 12,4 C 0,0 km/h (0 Bft)
24.09.2013 09:00 8,0 C 94 % 1020,0 hPa 0,0 l/m 0,0 km/h (0 Bft) NO 45 7,1 C 13,5 C 0,0 km/h (0 Bft)
24.09.2013 09:05 7,3 C 94 % 1020,0 hPa 0,0 l/m 0,0 km/h (0 Bft) NO 45 6,4 C 13,7 C 0,0 km/h (0 Bft)
24.09.2013 09:10 7,3 C 94 % 1019,9 hPa 0,0 l/m 0,0 km/h (0 Bft) O 90 6,4 C 15,0 C 0,0 km/h (0 Bft)
24.09.2013 09:15 9,6 C 94 % 1019,9 hPa 0,0 l/m 0,0 km/h (0 Bft) O-NO 67 8,7 C 15,4 C 0,0 km/h (0 Bft)
24.09.2013 09:20 10,4 C 93 % 1019,9 hPa 0,0 l/m 0,5 km/h (0 Bft) NO 45 9,3 C 15,7 C 2,9 km/h (1 Bft)
24.09.2013 09:25 11,4 C 92 % 1019,9 hPa 0,0 l/m 0,6 km/h (0 Bft) O 90 10,1 C 15,7 C 0,0 km/h (0 Bft)
24.09.2013 09:30 12,2 C 89 % 1020,0 hPa 0,0 l/m 0,5 km/h (0 Bft) O-NO 67 10,4 C 16,3 C 0,0 km/h (0 Bft)
24.09.2013 09:35 12,2 C 87 % 1020,0 hPa 0,0 l/m 0,2 km/h (0 Bft) O 90 10,1 C 16,6 C 0,0 km/h (0 Bft)
24.09.2013 09:40 12,5 C 86 % 1020,0 hPa 0,0 l/m 0,3 km/h (0 Bft) O-NO 67 10,2 C 16,9 C 1,9 km/h (1 Bft)
24.09.2013 09:45 12,8 C 84 % 1020,0 hPa 0,0 l/m 0,3 km/h (0 Bft) O 90 10,2 C 17,1 C 0,0 km/h (0 Bft)
24.09.2013 09:50 13,7 C 81 % 1020,2 hPa 0,0 l/m 0,3 km/h (0 Bft) O 90 10,5 C 18,2 C 2,6 km/h (1 Bft)
24.09.2013 09:55 13,4 C 79 % 1020,2 hPa 0,0 l/m 0,6 km/h (0 Bft) O-SO 112 9,8 C 18,4 C 2,3 km/h (1 Bft)
24.09.2013 10:00 14,0 C 78 % 1020,2 hPa 0,0 l/m 1,4 km/h (1 Bft) O-SO 112 10,2 C 18,4 C 2,1 km/h (1 Bft)
24.09.2013 10:05 14,3 C 77 % 1020,2 hPa 0,0 l/m 1,4 km/h (1 Bft) O-NO 67 10,3 C 18,5 C 1,9 km/h (1 Bft)
24.09.2013 10:10 14,5 C 75 % 1020,2 hPa 0,0 l/m 1,3 km/h (1 Bft) SO 135 10,1 C 18,8 C 0,0 km/h (0 Bft)
24.09.2013 10:15 15,0 C 76 % 1020,2 hPa 0,0 l/m 1,0 km/h (0 Bft) O 90 10,8 C 19,5 C 2,4 km/h (1 Bft)
24.09.2013 10:20 15,3 C 75 % 1020,2 hPa 0,0 l/m 1,6 km/h (1 Bft) O 90 10,9 C 19,5 C 3,1 km/h (1 Bft)
24.09.2013 10:25 15,5 C 76 % 1020,2 hPa 0,0 l/m 2,1 km/h (1 Bft) N-NO 22 11,3 C 19,5 C 2,1 km/h (1 Bft)
24.09.2013 10:30 16,7 C 76 % 1020,2 hPa 0,0 l/m 1,1 km/h (1 Bft) O-SO 112 12,4 C 19,7 C 0,0 km/h (0 Bft)
24.09.2013 10:35 17,4 C 75 % 1020,2 hPa 0,0 l/m 0,3 km/h (0 Bft) O-SO 112 12,9 C 20,1 C 0,0 km/h (0 Bft)
24.09.2013 10:40 16,7 C 69 % 1020,2 hPa 0,0 l/m 0,2 km/h (0 Bft) NO 45 11,0 C 19,6 C 0,0 km/h (0 Bft)
24.09.2013 10:45 17,2 C 71 % 1020,2 hPa 0,0 l/m 0,3 km/h (0 Bft) NO 45 11,9 C 19,3 C 0,0 km/h (0 Bft)
24.09.2013 10:50 17,6 C 68 % 1020,6 hPa 0,0 l/m 0,3 km/h (0 Bft) O-NO 67 11,6 C 18,2 C 0,0 km/h (0 Bft)
24.09.2013 10:55 17,7 C 69 % 1020,6 hPa 0,0 l/m 0,3 km/h (0 Bft) W-SW 247 11,9 C 17,6 C 0,0 km/h (0 Bft)
24.09.2013 11:00 18,2 C 68 % 1020,6 hPa 0,0 l/m 1,0 km/h (0 Bft) W-SW 247 12,2 C 16,7 C 2,9 km/h (1 Bft)
24.09.2013 11:05 18,6 C 69 % 1020,6 hPa 0,0 l/m 1,1 km/h (1 Bft) W-SW 247 12,8 C 16,5 C 0,0 km/h (0 Bft)
24.09.2013 11:10 19,2 C 68 % 1020,8 hPa 0,0 l/m 0,8 km/h (0 Bft) O 90 13,1 C 17,1 C 2,3 km/h (1 Bft)
24.09.2013 11:15 19,3 C 68 % 1020,8 hPa 0,0 l/m 0,5 km/h (0 Bft) O 90 13,2 C 17,7 C 0,0 km/h (0 Bft)
24.09.2013 11:20 19,4 C 63 % 1020,8 hPa 0,0 l/m 0,5 km/h (0 Bft) N-NO 22 12,2 C 19,3 C 2,4 km/h (1 Bft)
24.09.2013 11:25 19,0 C 55 % 1020,8 hPa 0,0 l/m 0,8 km/h (0 Bft) NW 315 9,8 C 19,7 C 2,1 km/h (1 Bft)
24.09.2013 11:30 19,4 C 63 % 1020,8 hPa 0,0 l/m 2,6 km/h (1 Bft) N-NW 337 12,2 C 20,8 C 5,5 km/h (1 Bft)
24.09.2013 11:35 19,0 C 56 % 1020,8 hPa 0,0 l/m 2,4 km/h (1 Bft) W-NW 292 10,0 C 21,3 C 4,8 km/h (1 Bft)
24.09.2013 11:40 19,3 C 55 % 1020,8 hPa 0,0 l/m 2,3 km/h (1 Bft) N-NO 22 10,0 C 21,7 C 5,6 km/h (1 Bft)
24.09.2013 11:45 20,1 C 55 % 1020,8 hPa 0,0 l/m 1,9 km/h (1 Bft) W-SW 247 10,8 C 21,9 C 0,0 km/h (0 Bft)
24.09.2013 11:50 20,3 C 61 % 1020,8 hPa 0,0 l/m 2,3 km/h (1 Bft) SW 225 12,5 C 22,5 C 6,6 km/h (2 Bft)
24.09.2013 11:55 20,1 C 58 % 1020,8 hPa 0,0 l/m 2,4 km/h (1 Bft) NO 45 11,6 C 22,5 C 3,2 km/h (1 Bft)
24.09.2013 12:00 20,2 C 57 % 1020,8 hPa 0,0 l/m 2,6 km/h (1 Bft) N-NW 337 11,4 C 22,8 C 4,3 km/h (1 Bft)
24.09.2013 12:05 20,1 C 52 % 1020,8 hPa 0,0 l/m 2,4 km/h (1 Bft) N 360 9,9 C 22,8 C 2,4 km/h (1 Bft)
24.09.2013 12:10 19,9 C 54 % 1020,8 hPa 0,0 l/m 2,4 km/h (1 Bft) O-NO 67 10,3 C 23,0 C 2,3 km/h (1 Bft)
24.09.2013 12:15 19,9 C 54 % 1020,8 hPa 0,0 l/m 2,4 km/h (1 Bft) O-NO 67 10,3 C 23,0 C 2,3 km/h (1 Bft)
24.09.2013 12:20 20,4 C 53 % 1020,8 hPa 0,0 l/m 2,6 km/h (1 Bft) NO 45 10,5 C 22,9 C 2,7 km/h (1 Bft)
24.09.2013 12:25 20,6 C 54 % 1020,8 hPa 0,0 l/m 2,7 km/h (1 Bft) O-NO 67 11,0 C 23,0 C 2,3 km/h (1 Bft)
24.09.2013 12:30 19,9 C 55 % 1020,7 hPa 0,0 l/m 3,2 km/h (1 Bft) W-NW 292 10,6 C 23,1 C 7,4 km/h (2 Bft)
24.09.2013 12:35 19,5 C 53 % 1020,7 hPa 0,0 l/m 3,4 km/h (1 Bft) NO 45 9,7 C 22,9 C 2,9 km/h (1 Bft)
24.09.2013 12:40 18,9 C 56 % 1020,7 hPa 0,0 l/m 2,9 km/h (1 Bft) NO 45 9,9 C 22,8 C 1,6 km/h (1 Bft)
24.09.2013 12:45 18,2 C 57 % 1020,7 hPa 0,0 l/m 3,1 km/h (1 Bft) N 360 9,5 C 22,9 C 4,7 km/h (1 Bft)
24.09.2013 12:50 17,6 C 62 % 1020,8 hPa 0,0 l/m 1,9 km/h (1 Bft) W-NW 292 10,2 C 23,9 C 5,0 km/h (1 Bft)
24.09.2013 12:55 17,4 C 62 % 1020,8 hPa 0,0 l/m 2,6 km/h (1 Bft) N-NW 337 10,0 C 24,1 C 6,3 km/h (2 Bft)
24.09.2013 13:00 17,4 C 63 % 1020,8 hPa 0,0 l/m 3,5 km/h (1 Bft) N-NW 337 10,3 C 24,0 C 7,6 km/h (2 Bft)
24.09.2013 13:05 17,5 C 66 % 1020,8 hPa 0,0 l/m 3,5 km/h (1 Bft) N 360 11,1 C 23,9 C 2,9 km/h (1 Bft)
24.09.2013 13:10 17,3 C 65 % 1020,7 hPa 0,0 l/m 2,4 km/h (1 Bft) O 90 10,7 C 24,5 C 3,2 km/h (1 Bft)
24.09.2013 13:15 17,2 C 65 % 1020,7 hPa 0,0 l/m 2,3 km/h (1 Bft) NO 45 10,6 C 24,5 C 3,1 km/h (1 Bft)
24.09.2013 13:20 17,3 C 65 % 1020,7 hPa 0,0 l/m 2,3 km/h (1 Bft) N 360 10,7 C 24,9 C 3,1 km/h (1 Bft)
24.09.2013 13:25 17,8 C 66 % 1020,7 hPa 0,0 l/m 2,4 km/h (1 Bft) NO 45 11,4 C 25,0 C 4,8 km/h (1 Bft)
24.09.2013 13:30 18,2 C 63 % 1020,6 hPa 0,0 l/m 3,1 km/h (1 Bft) O 90 11,0 C 24,7 C 7,6 km/h (2 Bft)
24.09.2013 13:35 18,6 C 63 % 1020,6 hPa 0,0 l/m 2,9 km/h (1 Bft) W-NW 292 11,4 C 24,6 C 4,2 km/h (1 Bft)
24.09.2013 13:40 19,4 C 60 % 1020,6 hPa 0,0 l/m 3,1 km/h (1 Bft) N 360 11,4 C 24,3 C 1,6 km/h (1 Bft)
24.09.2013 13:45 19,5 C 58 % 1020,6 hPa 0,0 l/m 2,9 km/h (1 Bft) N-NO 22 11,0 C 24,6 C 3,5 km/h (1 Bft)
24.09.2013 13:50 20,2 C 58 % 1020,4 hPa 0,0 l/m 1,6 km/h (1 Bft) NO 45 11,7 C 25,1 C 4,8 km/h (1 Bft)
24.09.2013 13:55 20,2 C 58 % 1020,4 hPa 0,0 l/m 1,8 km/h (1 Bft) N 360 11,7 C 25,1 C 4,0 km/h (1 Bft)
24.09.2013 14:00 20,3 C 54 % 1020,4 hPa 0,0 l/m 2,9 km/h (1 Bft) O-NO 67 10,7 C 25,2 C 4,7 km/h (1 Bft)
24.09.2013 14:05 20,2 C 55 % 1020,4 hPa 0,0 l/m 2,4 km/h (1 Bft) N-NO 22 10,9 C 25,2 C 5,6 km/h (1 Bft)
24.09.2013 14:10 20,2 C 56 % 1020,1 hPa 0,0 l/m 2,4 km/h (1 Bft) W 270 11,1 C 25,4 C 3,7 km/h (1 Bft)
24.09.2013 14:15 20,8 C 55 % 1020,1 hPa 0,0 l/m 1,8 km/h (1 Bft) N-NO 22 11,4 C 25,5 C 0,0 km/h (0 Bft)
24.09.2013 14:20 20,6 C 52 % 1020,1 hPa 0,0 l/m 2,3 km/h (1 Bft) N-NO 22 10,4 C 25,6 C 4,3 km/h (1 Bft)
24.09.2013 14:25 20,4 C 52 % 1020,1 hPa 0,0 l/m 2,3 km/h (1 Bft) O 90 10,2 C 25,5 C 2,3 km/h (1 Bft)
24.09.2013 14:30 20,2 C 54 % 1020,2 hPa 0,0 l/m 2,6 km/h (1 Bft) O-NO 67 10,6 C 26,1 C 4,3 km/h (1 Bft)
24.09.2013 14:35 19,7 C 56 % 1020,2 hPa 0,0 l/m 2,4 km/h (1 Bft) N-NW 337 10,7 C 26,1 C 4,0 km/h (1 Bft)
24.09.2013 14:40 19,4 C 58 % 1020,2 hPa 0,0 l/m 3,1 km/h (1 Bft) N 360 10,9 C 26,0 C 4,7 km/h (1 Bft)
24.09.2013 14:45 19,0 C 58 % 1020,2 hPa 0,0 l/m 3,4 km/h (1 Bft) NO 45 10,5 C 25,9 C 4,8 km/h (1 Bft)
24.09.2013 14:50 18,8 C 61 % 1019,8 hPa 0,0 l/m 3,1 km/h (1 Bft) N 360 11,1 C 25,1 C 0,0 km/h (0 Bft)
24.09.2013 14:55 18,7 C 61 % 1019,8 hPa 0,0 l/m 2,1 km/h (1 Bft) O-NO 67 11,0 C 25,6 C 2,7 km/h (1 Bft)
24.09.2013 15:00 18,5 C 63 % 1019,8 hPa 0,0 l/m 1,8 km/h (1 Bft) W-NW 292 11,3 C 26,3 C 5,3 km/h (1 Bft)
24.09.2013 15:05 18,8 C 61 % 1019,8 hPa 0,0 l/m 2,6 km/h (1 Bft) W-NW 292 11,1 C 25,9 C 5,3 km/h (1 Bft)
24.09.2013 15:10 18,6 C 61 % 1019,9 hPa 0,0 l/m 3,2 km/h (1 Bft) NW 315 10,9 C 25,6 C 0,0 km/h (0 Bft)
24.09.2013 15:15 18,4 C 63 % 1019,9 hPa 0,0 l/m 2,6 km/h (1 Bft) N-NW 337 11,2 C 25,9 C 6,6 km/h (2 Bft)
24.09.2013 15:20 18,5 C 64 % 1019,9 hPa 0,0 l/m 2,6 km/h (1 Bft) N-NW 337 11,6 C 26,0 C 5,1 km/h (1 Bft)
24.09.2013 15:25 18,2 C 64 % 1019,9 hPa 0,0 l/m 3,5 km/h (1 Bft) NO 45 11,3 C 25,9 C 6,8 km/h (2 Bft)
24.09.2013 15:30 18,0 C 66 % 1019,9 hPa 0,0 l/m 3,5 km/h (1 Bft) N-NW 337 11,6 C 25,6 C 7,1 km/h (2 Bft)
24.09.2013 15:35 17,9 C 68 % 1019,9 hPa 0,0 l/m 2,7 km/h (1 Bft) W-SW 247 11,9 C 25,6 C 4,7 km/h (1 Bft)
24.09.2013 15:40 18,1 C 67 % 1019,9 hPa 0,0 l/m 2,7 km/h (1 Bft) N 360 11,9 C 25,8 C 6,4 km/h (2 Bft)
24.09.2013 15:45 18,0 C 66 % 1019,9 hPa 0,0 l/m 2,9 km/h (1 Bft) N 360 11,6 C 25,6 C 4,5 km/h (1 Bft)
24.09.2013 15:50 17,9 C 68 % 1019,8 hPa 0,0 l/m 3,1 km/h (1 Bft) NW 315 11,9 C 25,7 C 4,3 km/h (1 Bft)
24.09.2013 15:55 18,0 C 67 % 1019,8 hPa 0,0 l/m 2,9 km/h (1 Bft) N 360 11,8 C 25,4 C 5,0 km/h (1 Bft)
24.09.2013 16:00 17,9 C 68 % 1019,8 hPa 0,0 l/m 3,2 km/h (1 Bft) N 360 11,9 C 25,5 C 6,9 km/h (2 Bft)
24.09.2013 16:05 17,9 C 67 % 1019,8 hPa 0,0 l/m 3,2 km/h (1 Bft) N-NO 22 11,7 C 25,4 C 2,7 km/h (1 Bft)
24.09.2013 16:10 17,8 C 68 % 1019,4 hPa 0,0 l/m 3,4 km/h (1 Bft) W-NW 292 11,8 C 25,5 C 3,7 km/h (1 Bft)
24.09.2013 16:15 17,7 C 69 % 1019,4 hPa 0,0 l/m 1,9 km/h (1 Bft) NO 45 11,9 C 25,7 C 0,0 km/h (0 Bft)
24.09.2013 16:20 17,9 C 68 % 1019,4 hPa 0,0 l/m 1,8 km/h (1 Bft) N 360 11,9 C 26,0 C 2,3 km/h (1 Bft)
24.09.2013 16:25 17,9 C 68 % 1019,4 hPa 0,0 l/m 1,6 km/h (1 Bft) N 360 11,9 C 25,8 C 0,0 km/h (0 Bft)
24.09.2013 16:30 18,3 C 66 % 1018,6 hPa 0,0 l/m 3,2 km/h (1 Bft) W 270 11,8 C 25,3 C 6,0 km/h (2 Bft)
24.09.2013 16:35 18,8 C 65 % 1018,6 hPa 0,0 l/m 3,7 km/h (1 Bft) NO 45 12,1 C 25,2 C 3,2 km/h (1 Bft)
24.09.2013 16:40 19,0 C 63 % 1018,6 hPa 0,0 l/m 2,4 km/h (1 Bft) N-NO 22 11,8 C 25,2 C 0,0 km/h (0 Bft)
24.09.2013 16:45 18,8 C 63 % 1018,6 hPa 0,0 l/m 1,9 km/h (1 Bft) S-SW 202 11,6 C 25,6 C 3,4 km/h (1 Bft)
24.09.2013 16:50 19,1 C 63 % 1018,6 hPa 0,0 l/m 1,4 km/h (1 Bft) N-NW 337 11,9 C 25,9 C 1,8 km/h (1 Bft)
24.09.2013 16:55 18,6 C 63 % 1018,6 hPa 0,0 l/m 2,3 km/h (1 Bft) NO 45 11,4 C 25,8 C 6,3 km/h (2 Bft)
24.09.2013 17:00 18,1 C 64 % 1018,6 hPa 0,0 l/m 4,0 km/h (1 Bft) NO 45 11,2 C 25,0 C 2,7 km/h (1 Bft)
24.09.2013 17:05 18,0 C 64 % 1018,6 hPa 0,0 l/m 4,3 km/h (1 Bft) O 90 11,1 C 24,9 C 2,9 km/h (1 Bft)
24.09.2013 17:10 17,5 C 66 % 1019,1 hPa 0,0 l/m 1,9 km/h (1 Bft) NO 45 11,1 C 25,6 C 4,0 km/h (1 Bft)
24.09.2013 17:15 17,5 C 66 % 1019,1 hPa 0,0 l/m 1,3 km/h (1 Bft) NO 45 11,1 C 25,6 C 2,3 km/h (1 Bft)
24.09.2013 17:20 17,2 C 67 % 1019,1 hPa 0,0 l/m 1,8 km/h (1 Bft) O 90 11,0 C 25,9 C 3,1 km/h (1 Bft)
24.09.2013 17:25 17,1 C 68 % 1019,1 hPa 0,0 l/m 1,4 km/h (1 Bft) NO 45 11,1 C 25,7 C 0,0 km/h (0 Bft)
24.09.2013 17:30 16,9 C 70 % 1019,1 hPa 0,0 l/m 1,4 km/h (1 Bft) N-NO 22 11,4 C 25,5 C 4,3 km/h (1 Bft)
24.09.2013 17:35 17,0 C 70 % 1019,1 hPa 0,0 l/m 1,3 km/h (1 Bft) O-NO 67 11,5 C 25,4 C 1,9 km/h (1 Bft)
24.09.2013 17:40 17,0 C 70 % 1019,1 hPa 0,0 l/m 1,4 km/h (1 Bft) O 90 11,5 C 25,5 C 1,8 km/h (1 Bft)
24.09.2013 17:45 16,9 C 70 % 1019,1 hPa 0,0 l/m 1,3 km/h (1 Bft) O-NO 67 11,4 C 25,5 C 0,0 km/h (0 Bft)
24.09.2013 17:50 16,8 C 70 % 1018,4 hPa 0,0 l/m 1,3 km/h (1 Bft) O 90 11,3 C 25,1 C 0,0 km/h (0 Bft)
24.09.2013 17:55 16,5 C 71 % 1018,4 hPa 0,0 l/m 1,1 km/h (1 Bft) NO 45 11,2 C 24,7 C 2,6 km/h (1 Bft)
24.09.2013 18:00 16,3 C 72 % 1018,4 hPa 0,0 l/m 1,1 km/h (1 Bft) O-NO 67 11,2 C 23,5 C 2,7 km/h (1 Bft)
24.09.2013 18:05 16,3 C 72 % 1018,4 hPa 0,0 l/m 1,8 km/h (1 Bft) NO 45 11,2 C 22,9 C 3,7 km/h (1 Bft)
24.09.2013 18:10 16,1 C 72 % 1018,1 hPa 0,0 l/m 3,1 km/h (1 Bft) NO 45 11,0 C 21,3 C 2,3 km/h (1 Bft)
24.09.2013 18:15 16,0 C 73 % 1018,1 hPa 0,0 l/m 2,7 km/h (1 Bft) O-NO 67 11,2 C 21,1 C 2,7 km/h (1 Bft)
24.09.2013 18:20 15,7 C 75 % 1018,1 hPa 0,0 l/m 1,9 km/h (1 Bft) O-NO 67 11,3 C 20,4 C 1,8 km/h (1 Bft)
24.09.2013 18:25 15,6 C 75 % 1018,1 hPa 0,0 l/m 1,6 km/h (1 Bft) O 90 11,2 C 20,0 C 2,4 km/h (1 Bft)
24.09.2013 18:30 15,5 C 76 % 1018,0 hPa 0,0 l/m 2,9 km/h (1 Bft) O 90 11,3 C 18,9 C 3,9 km/h (1 Bft)
24.09.2013 18:35 15,3 C 76 % 1018,0 hPa 0,0 l/m 3,9 km/h (1 Bft) O-NO 67 11,1 C 18,6 C 4,3 km/h (1 Bft)
24.09.2013 18:40 15,0 C 77 % 1018,0 hPa 0,0 l/m 3,4 km/h (1 Bft) O-NO 67 11,0 C 18,4 C 3,4 km/h (1 Bft)
24.09.2013 18:45 14,9 C 78 % 1018,0 hPa 0,0 l/m 3,4 km/h (1 Bft) O-NO 67 11,1 C 18,1 C 4,0 km/h (1 Bft)
24.09.2013 18:50 14,5 C 79 % 1018,1 hPa 0,0 l/m 3,7 km/h (1 Bft) O 90 10,9 C 17,2 C 4,3 km/h (1 Bft)
24.09.2013 18:55 14,2 C 79 % 1018,1 hPa 0,0 l/m 3,7 km/h (1 Bft) NO 45 10,6 C 16,8 C 3,5 km/h (1 Bft)
24.09.2013 19:00 13,6 C 80 % 1018,1 hPa 0,0 l/m 3,9 km/h (1 Bft) O 90 10,2 C 16,2 C 3,4 km/h (1 Bft)
24.09.2013 19:05 13,5 C 82 % 1018,1 hPa 0,0 l/m 3,5 km/h (1 Bft) O-NO 67 10,5 C 15,7 C 2,4 km/h (1 Bft)
24.09.2013 19:10 13,4 C 83 % 1018,0 hPa 0,0 l/m 3,1 km/h (1 Bft) O-NO 67 10,6 C 14,2 C 4,3 km/h (1 Bft)
24.09.2013 19:15 13,3 C 83 % 1018,0 hPa 0,0 l/m 3,5 km/h (1 Bft) O 90 10,5 C 13,7 C 2,4 km/h (1 Bft)
24.09.2013 19:20 12,5 C 84 % 1018,0 hPa 0,0 l/m 2,7 km/h (1 Bft) O-SO 112 9,9 C 12,9 C 0,0 km/h (0 Bft)
24.09.2013 19:25 12,3 C 84 % 1018,0 hPa 0,0 l/m 2,1 km/h (1 Bft) O-SO 112 9,7 C 12,8 C 2,1 km/h (1 Bft)
24.09.2013 19:30 12,3 C 85 % 1018,1 hPa 0,0 l/m 2,4 km/h (1 Bft) O-NO 67 9,9 C 12,2 C 3,9 km/h (1 Bft)
24.09.2013 19:35 12,3 C 85 % 1018,1 hPa 0,0 l/m 2,9 km/h (1 Bft) O 90 9,9 C 12,1 C 2,7 km/h (1 Bft)
24.09.2013 19:40 12,0 C 85 % 1018,1 hPa 0,0 l/m 2,3 km/h (1 Bft) O 90 9,6 C 11,9 C 2,1 km/h (1 Bft)
24.09.2013 19:45 11,7 C 85 % 1018,1 hPa 0,0 l/m 1,6 km/h (1 Bft) NO 45 9,3 C 11,7 C 0,0 km/h (0 Bft)
24.09.2013 19:50 11,7 C 85 % 1017,9 hPa 0,0 l/m 0,8 km/h (0 Bft) O 90 9,3 C 11,3 C 2,9 km/h (1 Bft)
24.09.2013 19:55 11,7 C 86 % 1017,9 hPa 0,0 l/m 1,3 km/h (1 Bft) S-SO 157 9,4 C 11,2 C 0,0 km/h (0 Bft)
24.09.2013 20:00 11,4 C 86 % 1017,9 hPa 0,0 l/m 1,9 km/h (1 Bft) O 90 9,1 C 11,1 C 3,4 km/h (1 Bft)
24.09.2013 20:05 11,4 C 86 % 1017,9 hPa 0,0 l/m 1,9 km/h (1 Bft) O 90 9,1 C 11,0 C 3,1 km/h (1 Bft)
24.09.2013 20:10 11,5 C 86 % 1017,9 hPa 0,0 l/m 2,9 km/h (1 Bft) O-NO 67 9,2 C 11,0 C 4,3 km/h (1 Bft)
24.09.2013 20:15 11,5 C 87 % 1017,9 hPa 0,0 l/m 3,5 km/h (1 Bft) O 90 9,4 C 11,1 C 4,3 km/h (1 Bft)
24.09.2013 20:20 11,5 C 87 % 1017,9 hPa 0,0 l/m 4,0 km/h (1 Bft) O 90 9,4 C 11,1 C 3,7 km/h (1 Bft)
24.09.2013 20:25 11,5 C 87 % 1017,9 hPa 0,0 l/m 3,9 km/h (1 Bft) O-SO 112 9,4 C 11,1 C 3,1 km/h (1 Bft)
24.09.2013 20:30 11,0 C 87 % 1017,8 hPa 0,0 l/m 1,8 km/h (1 Bft) N-NO 22 8,9 C 10,8 C 0,0 km/h (0 Bft)
24.09.2013 20:35 10,3 C 86 % 1017,8 hPa 0,0 l/m 0,6 km/h (0 Bft) O 90 8,1 C 10,5 C 0,0 km/h (0 Bft)
24.09.2013 20:40 10,2 C 86 % 1017,8 hPa 0,0 l/m 0,0 km/h (0 Bft) O 90 8,0 C 10,2 C 0,0 km/h (0 Bft)
24.09.2013 20:45 10,2 C 87 % 1017,8 hPa 0,0 l/m 0,0 km/h (0 Bft) O 90 8,1 C 10,1 C 0,0 km/h (0 Bft)
24.09.2013 20:50 10,2 C 88 % 1017,8 hPa 0,0 l/m 0,0 km/h (0 Bft) O 90 8,3 C 10,1 C 0,0 km/h (0 Bft)
24.09.2013 20:55 9,8 C 88 % 1017,8 hPa 0,0 l/m 0,0 km/h (0 Bft) NO 45 7,9 C 10,1 C 0,0 km/h (0 Bft)
24.09.2013 21:00 9,8 C 88 % 1017,8 hPa 0,0 l/m 0,0 km/h (0 Bft) O-SO 112 7,9 C 9,9 C 0,0 km/h (0 Bft)
24.09.2013 21:05 9,9 C 88 % 1017,8 hPa 0,0 l/m 0,0 km/h (0 Bft) O-SO 112 8,0 C 9,9 C 0,0 km/h (0 Bft)
24.09.2013 21:10 9,7 C 88 % 1017,8 hPa 0,0 l/m 0,0 km/h (0 Bft) O 90 7,8 C 9,9 C 0,0 km/h (0 Bft)
24.09.2013 21:15 9,6 C 88 % 1017,8 hPa 0,0 l/m 0,0 km/h (0 Bft) SO 135 7,7 C 9,8 C 0,0 km/h (0 Bft)
24.09.2013 21:20 9,4 C 88 % 1017,8 hPa 0,0 l/m 0,0 km/h (0 Bft) NO 45 7,5 C 9,7 C 0,0 km/h (0 Bft)
24.09.2013 21:25 9,6 C 89 % 1017,8 hPa 0,0 l/m 0,0 km/h (0 Bft) N-NO 22 7,9 C 9,6 C 0,0 km/h (0 Bft)
24.09.2013 21:30 9,5 C 89 % 1017,6 hPa 0,0 l/m 0,2 km/h (0 Bft) S 180 7,8 C 9,8 C 0,0 km/h (0 Bft)
24.09.2013 21:35 9,1 C 89 % 1017,6 hPa 0,0 l/m 0,2 km/h (0 Bft) S 180 7,4 C 9,8 C 0,0 km/h (0 Bft)
24.09.2013 21:40 8,9 C 89 % 1017,6 hPa 0,0 l/m 0,0 km/h (0 Bft) S-SO 157 7,2 C 9,5 C 0,0 km/h (0 Bft)
24.09.2013 21:45 9,2 C 89 % 1017,6 hPa 0,0 l/m 0,0 km/h (0 Bft) O-SO 112 7,5 C 9,5 C 0,0 km/h (0 Bft)
24.09.2013 21:50 8,8 C 89 % 1017,1 hPa 0,0 l/m 0,0 km/h (0 Bft) O 90 7,1 C 9,4 C 0,0 km/h (0 Bft)
24.09.2013 21:55 8,8 C 89 % 1017,1 hPa 0,0 l/m 0,0 km/h (0 Bft) O 90 7,1 C 9,2 C 0,0 km/h (0 Bft)
24.09.2013 22:00 9,0 C 89 % 1017,1 hPa 0,0 l/m 0,0 km/h (0 Bft) O 90 7,3 C 9,1 C 0,0 km/h (0 Bft)
24.09.2013 22:05 8,7 C 90 % 1017,1 hPa 0,0 l/m 0,0 km/h (0 Bft) O 90 7,2 C 9,0 C 0,0 km/h (0 Bft)
24.09.2013 22:10 8,6 C 90 % 1017,4 hPa 0,0 l/m 0,0 km/h (0 Bft) O 90 7,1 C 8,9 C 0,0 km/h (0 Bft)
24.09.2013 22:15 8,6 C 90 % 1017,4 hPa 0,0 l/m 0,0 km/h (0 Bft) O 90 7,1 C 8,8 C 0,0 km/h (0 Bft)
24.09.2013 22:20 8,8 C 90 % 1017,4 hPa 0,0 l/m 0,0 km/h (0 Bft) O 90 7,3 C 8,7 C 0,0 km/h (0 Bft)
24.09.2013 22:25 8,6 C 90 % 1017,4 hPa 0,0 l/m 0,0 km/h (0 Bft) O-NO 67 7,1 C 8,7 C 0,0 km/h (0 Bft)
24.09.2013 22:30 8,7 C 90 % 1017,6 hPa 0,0 l/m 0,0 km/h (0 Bft) O-NO 67 7,2 C 8,6 C 0,0 km/h (0 Bft)
24.09.2013 22:35 8,5 C 90 % 1017,6 hPa 0,0 l/m 0,0 km/h (0 Bft) O 90 7,0 C 8,6 C 0,0 km/h (0 Bft)
24.09.2013 22:40 8,6 C 90 % 1017,6 hPa 0,0 l/m 0,0 km/h (0 Bft) O 90 7,1 C 8,7 C 0,0 km/h (0 Bft)
24.09.2013 22:45 8,4 C 90 % 1017,6 hPa 0,0 l/m 0,0 km/h (0 Bft) O-NO 67 6,9 C 8,7 C 0,0 km/h (0 Bft)
24.09.2013 22:50 8,7 C 90 % 1017,4 hPa 0,0 l/m 0,0 km/h (0 Bft) O-NO 67 7,2 C 8,6 C 0,0 km/h (0 Bft)
24.09.2013 22:55 8,6 C 90 % 1017,4 hPa 0,0 l/m 0,0 km/h (0 Bft) O-NO 67 7,1 C 8,5 C 0,0 km/h (0 Bft)
24.09.2013 23:00 8,5 C 90 % 1017,4 hPa 0,0 l/m 0,0 km/h (0 Bft) O-SO 112 7,0 C 8,5 C 0,0 km/h (0 Bft)
24.09.2013 23:05 8,6 C 90 % 1017,4 hPa 0,0 l/m 0,0 km/h (0 Bft) O-SO 112 7,1 C 8,5 C 0,0 km/h (0 Bft)
24.09.2013 23:10 8,2 C 90 % 1017,3 hPa 0,0 l/m 0,0 km/h (0 Bft) O-NO 67 6,7 C 8,4 C 0,0 km/h (0 Bft)
24.09.2013 23:15 8,3 C 90 % 1017,3 hPa 0,0 l/m 0,0 km/h (0 Bft) O-NO 67 6,8 C 8,3 C 0,0 km/h (0 Bft)
24.09.2013 23:20 8,0 C 90 % 1017,3 hPa 0,0 l/m 0,0 km/h (0 Bft) O-NO 67 6,5 C 8,2 C 0,0 km/h (0 Bft)
24.09.2013 23:25 8,0 C 90 % 1017,3 hPa 0,0 l/m 0,0 km/h (0 Bft) O 90 6,5 C 8,1 C 0,0 km/h (0 Bft)
24.09.2013 23:30 7,8 C 90 % 1017,3 hPa 0,0 l/m 0,0 km/h (0 Bft) NO 45 6,3 C 8,0 C 0,0 km/h (0 Bft)
24.09.2013 23:35 7,8 C 91 % 1017,3 hPa 0,0 l/m 0,0 km/h (0 Bft) O-NO 67 6,4 C 8,0 C 0,0 km/h (0 Bft)
24.09.2013 23:40 8,7 C 91 % 1017,3 hPa 0,0 l/m 0,3 km/h (0 Bft) O-SO 112 7,3 C 8,5 C 0,0 km/h (0 Bft)
24.09.2013 23:45 8,8 C 91 % 1017,3 hPa 0,0 l/m 0,3 km/h (0 Bft) O-SO 112 7,4 C 8,6 C 0,0 km/h (0 Bft)
24.09.2013 23:50 8,6 C 91 % 1017,2 hPa 0,0 l/m 0,0 km/h (0 Bft) NO 45 7,2 C 8,6 C 0,0 km/h (0 Bft)
24.09.2013 23:55 8,2 C 91 % 1017,2 hPa 0,0 l/m 0,0 km/h (0 Bft) NO 45 6,8 C 8,6 C 0,0 km/h (0 Bft)
_ Min-Zeit 07:30 14:25 22:05 - 23:55 - - 07:30 07:15 23:55
Minimum _ 2,7 C 52 % 1017,1 hPa - 0,0 km/h (0 Bft) - - 2,1 C 2,4 C 0,0 km/h (0 Bft)
_ Max-Zeit 14:15 08:55 00:05 23:55 17:05 - - 11:15 15:00 13:30
Maximum _ 20,8 C 96 % 1023,0 hPa 0,0 l/m 4,3 km/h
O (1 Bft)
- - 13,2 C 26,3 C 7,6 km/h
O (2 Bft)
Durchschnitt _ 10,9 C 82 % 1019,9 hPa #0,0 l/m 1,1 km/h (1 Bft) NO - 7,6 C 13,2 C 1,5 km/h (1 Bft)